createdAt,value
2022-09-05T00:03:07.997Z,16.85
2022-09-05T00:06:13.709Z,16.84
2022-09-05T00:09:22.244Z,16.79
2022-09-05T00:12:34.186Z,16.76
2022-09-05T00:15:45.190Z,16.73
2022-09-05T00:24:20.512Z,16.73
2022-09-05T00:24:30.242Z,16.71
2022-09-05T00:26:18.545Z,16.70
2022-09-05T00:31:03.970Z,16.70
2022-09-05T00:33:16.799Z,16.68
2022-09-05T00:36:34.034Z,16.69
2022-09-05T00:39:41.361Z,16.71
2022-09-05T00:42:54.463Z,16.69
2022-09-05T00:46:02.270Z,16.65
2022-09-05T00:49:17.869Z,16.59
2022-09-05T00:52:29.910Z,16.55
2022-09-05T00:55:40.826Z,16.53
2022-09-05T00:58:59.697Z,16.51
2022-09-05T01:02:08.130Z,16.50
2022-09-05T01:05:25.898Z,16.50
2022-09-05T01:08:50.091Z,16.48
2022-09-05T01:12:24.665Z,16.46
2022-09-05T01:15:35.809Z,16.46
2022-09-05T01:18:51.229Z,16.42
2022-09-05T01:22:23.710Z,16.39
2022-09-05T01:25:38.124Z,16.35
2022-09-05T01:29:16.445Z,16.31
2022-09-05T01:32:30.734Z,16.22
2022-09-05T01:36:00.562Z,16.18
2022-09-05T01:40:15.383Z,16.12
2022-09-05T01:42:50.905Z,16.09
2022-09-05T01:46:01.120Z,16.07
2022-09-05T01:49:13.866Z,16.02
2022-09-05T01:52:57.470Z,15.98
2022-09-05T01:56:30.784Z,15.96
2022-09-05T01:59:45.289Z,15.95
2022-09-05T02:03:04.411Z,15.88
2022-09-05T02:06:30.591Z,15.88
2022-09-05T02:09:51.550Z,15.83
2022-09-05T02:13:13.089Z,15.78
2022-09-05T02:16:22.317Z,15.80
2022-09-05T02:19:31.815Z,15.77
2022-09-05T02:22:43.929Z,15.77
2022-09-05T02:26:02.841Z,15.72
2022-09-05T02:29:28.412Z,15.70
2022-09-05T02:32:43.224Z,15.66
2022-09-05T02:35:54.074Z,15.65
2022-09-05T02:44:31.142Z,15.63
2022-09-05T02:45:16.342Z,15.59
2022-09-05T02:46:04.661Z,15.59
2022-09-05T02:49:21.704Z,15.57
2022-09-05T02:57:27.122Z,15.59
2022-09-05T02:57:34.570Z,15.53
2022-09-05T03:00:04.517Z,15.52
2022-09-05T03:03:19.818Z,15.52
2022-09-05T03:06:36.168Z,15.50
2022-09-05T03:09:59.219Z,15.48
2022-09-05T03:13:48.879Z,15.46
2022-09-05T03:17:30.986Z,15.33
2022-09-05T03:21:09.067Z,15.44
2022-09-05T03:24:55.646Z,15.43
2022-09-05T03:28:29.721Z,15.41
2022-09-05T03:31:51.679Z,15.40
2022-09-05T03:35:33.478Z,15.36
2022-09-05T03:39:20.864Z,15.35
2022-09-05T03:42:39.707Z,15.32
2022-09-05T03:45:58.944Z,15.30
2022-09-05T03:53:29.473Z,15.23
2022-09-05T03:57:13.716Z,15.24
2022-09-05T03:57:18.762Z,15.21
2022-09-05T04:00:22.355Z,15.21
2022-09-05T04:08:13.702Z,15.18
2022-09-05T04:08:30.911Z,15.16
2022-09-05T04:10:31.341Z,15.12
2022-09-05T04:13:40.102Z,15.14
2022-09-05T04:16:51.944Z,15.21
2022-09-05T04:20:01.643Z,15.26
2022-09-05T04:23:17.876Z,15.24
2022-09-05T04:26:41.964Z,15.26
2022-09-05T04:29:58.870Z,15.30
2022-09-05T04:33:06.717Z,15.25
2022-09-05T04:36:19.637Z,15.23
2022-09-05T04:39:27.881Z,15.18
2022-09-05T04:42:31.283Z,15.15
2022-09-05T04:45:40.476Z,15.15
2022-09-05T04:48:49.112Z,15.15
2022-09-05T04:52:31.580Z,15.17
2022-09-05T04:55:46.842Z,15.23
2022-09-05T05:00:07.587Z,15.31
2022-09-05T05:06:10.845Z,15.57
2022-09-05T05:06:20.300Z,15.45
2022-09-05T05:09:27.066Z,15.62
2022-09-05T05:17:54.056Z,15.67
2022-09-05T05:18:13.400Z,15.72
2022-09-05T05:19:47.343Z,15.80
2022-09-05T05:23:08.357Z,15.82
2022-09-05T05:26:21.504Z,15.84
2022-09-05T05:29:29.159Z,15.82
2022-09-05T05:32:45.523Z,15.85
2022-09-05T05:35:50.504Z,15.81
2022-09-05T05:38:59.558Z,15.84
2022-09-05T05:42:19.455Z,15.87
2022-09-05T05:45:28.759Z,15.90
2022-09-05T05:48:37.297Z,15.86
2022-09-05T05:52:01.792Z,15.93
2022-09-05T05:55:50.573Z,15.97
2022-09-05T05:59:11.840Z,16.20
2022-09-05T06:03:24.863Z,16.33
2022-09-05T06:06:39.650Z,16.70
2022-09-05T06:14:51.931Z,16.66
2022-09-05T06:15:00.625Z,17.14
2022-09-05T06:17:35.464Z,17.23
2022-09-05T06:22:09.506Z,17.60
2022-09-05T06:25:17.007Z,17.95
2022-09-05T06:28:27.450Z,18.06
2022-09-05T06:31:48.198Z,18.08
2022-09-05T06:35:15.874Z,18.08
2022-09-05T06:38:39.244Z,18.08
2022-09-05T06:41:57.876Z,18.06
2022-09-05T06:45:27.972Z,18.09
2022-09-05T06:48:46.475Z,18.21
2022-09-05T06:52:40.840Z,18.39
2022-09-05T06:56:12.729Z,18.71
2022-09-05T07:00:00.213Z,19.06
2022-09-05T07:03:23.965Z,19.16
2022-09-05T07:06:50.781Z,19.04
2022-09-05T07:10:22.061Z,18.64
2022-09-05T07:13:38.844Z,18.41
2022-09-05T07:16:52.779Z,18.35
2022-09-05T07:20:00.607Z,18.37
2022-09-05T07:23:25.765Z,18.39
2022-09-05T07:26:51.745Z,18.47
2022-09-05T07:30:01.978Z,18.59
2022-09-05T07:33:05.776Z,18.58
2022-09-05T07:36:13.072Z,18.61
2022-09-05T07:39:28.727Z,18.67
2022-09-05T07:42:38.031Z,18.79
2022-09-05T07:45:55.471Z,18.84
2022-09-05T07:49:03.744Z,18.90
2022-09-05T07:56:54.442Z,19.03
2022-09-05T07:57:10.215Z,19.12
2022-09-05T07:59:08.392Z,19.24
2022-09-05T08:02:13.955Z,19.34
2022-09-05T08:05:34.429Z,19.44
2022-09-05T08:09:21.662Z,19.54
2022-09-05T08:12:27.680Z,19.65
2022-09-05T08:15:42.588Z,19.76
2022-09-05T08:19:07.858Z,19.88
2022-09-05T08:22:17.488Z,20.10
2022-09-05T08:25:25.568Z,20.28
2022-09-05T08:28:42.233Z,20.43
2022-09-05T08:31:52.637Z,20.46
2022-09-05T08:35:02.936Z,20.58
2022-09-05T08:38:06.912Z,20.79
2022-09-05T08:41:18.672Z,20.89
2022-09-05T08:44:37.619Z,20.97
2022-09-05T08:48:16.685Z,21.14
2022-09-05T08:51:30.662Z,21.26
2022-09-05T08:54:38.242Z,21.42
2022-09-05T08:58:04.088Z,21.60
2022-09-05T09:01:16.275Z,21.75
2022-09-05T09:04:38.626Z,21.94
2022-09-05T09:07:56.938Z,22.06
2022-09-05T09:11:07.576Z,22.24
2022-09-05T09:14:31.486Z,22.40
2022-09-05T09:17:43.300Z,22.59
2022-09-05T09:20:54.934Z,22.75
2022-09-05T09:24:09.024Z,22.87
2022-09-05T09:27:41.756Z,23.11
2022-09-05T09:30:57.495Z,23.18
2022-09-05T09:34:22.781Z,23.20
2022-09-05T09:37:51.704Z,23.38
2022-09-05T09:41:19.243Z,23.47
2022-09-05T09:44:58.066Z,23.69
2022-09-05T09:48:20.498Z,23.85
2022-09-05T09:52:06.790Z,23.99
2022-09-05T09:55:52.153Z,24.16
2022-09-05T09:59:13.466Z,24.24
2022-09-05T10:06:36.690Z,24.64
2022-09-05T10:06:42.351Z,24.55
2022-09-05T10:10:59.754Z,24.84
2022-09-05T10:14:49.556Z,24.99
2022-09-05T10:18:27.487Z,25.22
2022-09-05T10:25:28.858Z,25.81
2022-09-05T10:28:39.166Z,26.18
2022-09-05T10:35:05.076Z,26.56
2022-09-05T10:35:27.040Z,26.74
2022-09-05T10:38:40.292Z,26.68
2022-09-05T10:41:50.065Z,26.61
2022-09-05T10:44:55.681Z,26.52
2022-09-05T10:48:12.907Z,26.50
2022-09-05T10:51:27.183Z,26.51
2022-09-05T10:54:39.810Z,26.64
2022-09-05T10:57:54.466Z,26.77
2022-09-05T11:02:21.117Z,26.81
2022-09-05T11:04:46.673Z,26.80
2022-09-05T11:08:03.370Z,26.87
2022-09-05T11:11:26.038Z,26.87
2022-09-05T11:14:49.754Z,26.94
2022-09-05T11:18:00.620Z,27.26
2022-09-05T11:21:08.767Z,27.59
2022-09-05T11:24:27.550Z,27.97
2022-09-05T11:27:35.398Z,28.23
2022-09-05T11:30:42.901Z,28.44
2022-09-05T11:39:49.224Z,28.78
2022-09-05T11:40:10.319Z,28.98
2022-09-05T11:42:17.069Z,28.54
2022-09-05T11:46:02.826Z,28.59
2022-09-05T11:49:37.189Z,28.32
2022-09-05T11:53:30.757Z,28.29
2022-09-05T11:56:54.524Z,28.11
2022-09-05T12:00:32.854Z,27.93
2022-09-05T12:03:59.585Z,28.01
2022-09-05T12:07:26.255Z,28.24
2022-09-05T12:10:48.586Z,28.50
2022-09-05T12:14:01.914Z,28.61
2022-09-05T12:17:35.366Z,28.89
2022-09-05T12:20:50.288Z,29.20
2022-09-05T12:25:15.283Z,29.52
2022-09-05T12:27:41.630Z,29.72
2022-09-05T12:31:07.116Z,29.79
2022-09-05T12:36:05.917Z,29.64
2022-09-05T12:40:57.820Z,29.68
2022-09-05T12:41:42.814Z,29.64
2022-09-05T12:45:02.825Z,29.70
2022-09-05T12:48:14.158Z,29.63
2022-09-05T12:51:46.494Z,29.64
2022-09-05T12:54:51.708Z,29.75
2022-09-05T13:02:55.032Z,29.77
2022-09-05T13:03:09.381Z,29.78
2022-09-05T13:05:02.499Z,29.66
2022-09-05T13:08:21.708Z,29.73
2022-09-05T13:14:52.312Z,29.72
2022-09-05T13:15:20.164Z,29.69
2022-09-05T13:18:28.991Z,29.65
2022-09-05T13:21:36.567Z,29.60
2022-09-05T13:24:47.969Z,29.62
2022-09-05T13:28:04.048Z,29.62
2022-09-05T13:34:17.763Z,29.61
2022-09-05T13:38:11.969Z,29.55
2022-09-05T13:38:47.708Z,29.56
2022-09-05T13:41:52.728Z,29.56
2022-09-05T13:45:00.488Z,29.54
2022-09-05T13:49:23.787Z,29.54
2022-09-05T13:52:08.670Z,29.23
2022-09-05T13:55:24.385Z,29.22
2022-09-05T13:58:39.898Z,29.20
2022-09-05T14:02:26.223Z,29.27
2022-09-05T14:05:35.744Z,29.41
2022-09-05T14:12:36.939Z,29.49
2022-09-05T14:15:54.551Z,29.59
2022-09-05T14:19:19.335Z,29.69
2022-09-05T14:22:47.117Z,29.79
2022-09-05T14:25:56.076Z,29.89
2022-09-05T14:29:19.988Z,29.98
2022-09-05T14:37:43.660Z,29.75
2022-09-05T14:37:45.331Z,29.96
2022-09-05T14:40:29.703Z,29.68
2022-09-05T14:44:08.274Z,29.76
2022-09-05T14:47:35.327Z,29.83
2022-09-05T14:50:59.589Z,29.87
2022-09-05T14:54:11.766Z,29.86
2022-09-05T15:02:38.437Z,29.79
2022-09-05T15:02:43.897Z,29.79
2022-09-05T15:07:38.899Z,30.00
2022-09-05T15:12:16.709Z,30.02
2022-09-05T15:14:11.866Z,30.06
2022-09-05T15:17:22.062Z,30.08
2022-09-05T15:20:37.249Z,30.10
2022-09-05T15:23:42.664Z,30.08
2022-09-05T15:26:52.822Z,29.98
2022-09-05T15:29:58.140Z,29.92
2022-09-05T15:33:25.599Z,29.90
2022-09-05T15:36:34.003Z,29.85
2022-09-05T15:39:39.585Z,29.84
2022-09-05T15:42:49.124Z,29.79
2022-09-05T15:46:00.688Z,29.75
2022-09-05T15:49:05.403Z,29.73
2022-09-05T15:52:29.456Z,29.71
2022-09-05T15:55:46.679Z,29.69
2022-09-05T15:58:56.474Z,29.65
2022-09-05T16:02:00.971Z,29.62
2022-09-05T16:10:21.536Z,29.58
2022-09-05T16:10:40.247Z,29.49
2022-09-05T16:12:17.204Z,29.43
2022-09-05T16:17:36.388Z,29.38
2022-09-05T16:23:27.978Z,29.28
2022-09-05T16:23:28.980Z,29.18
2022-09-05T16:25:46.126Z,29.09
2022-09-05T16:28:52.999Z,28.99
2022-09-05T16:32:15.502Z,28.78
2022-09-05T16:35:25.132Z,28.62
2022-09-05T16:38:49.632Z,28.54
2022-09-05T16:41:55.747Z,28.45
2022-09-05T16:45:05.697Z,28.38
2022-09-05T16:48:25.879Z,28.33
2022-09-05T16:51:36.441Z,28.16
2022-09-05T16:54:42.446Z,28.13
2022-09-05T16:58:02.111Z,28.06
2022-09-05T17:01:54.763Z,27.93
2022-09-05T17:05:13.906Z,27.84
2022-09-05T17:08:24.467Z,27.74
2022-09-05T17:11:29.903Z,27.59
2022-09-05T17:14:40.039Z,27.42
2022-09-05T17:18:22.677Z,27.24
2022-09-05T17:21:35.215Z,27.04
2022-09-05T17:29:18.475Z,26.79
2022-09-05T17:29:34.486Z,26.51
2022-09-05T17:32:19.059Z,26.29
2022-09-05T17:35:42.563Z,26.07
2022-09-05T17:39:02.871Z,25.85
2022-09-05T17:42:26.262Z,25.70
2022-09-05T17:45:45.100Z,25.50
2022-09-05T17:49:20.048Z,25.33
2022-09-05T17:52:24.804Z,25.15
2022-09-05T17:56:06.346Z,24.97
2022-09-05T17:59:26.790Z,24.81
2022-09-05T18:02:32.547Z,24.66
2022-09-05T18:06:07.464Z,24.48
2022-09-05T18:09:48.849Z,24.36
2022-09-05T18:13:13.933Z,24.24
2022-09-05T18:16:30.502Z,24.14
2022-09-05T18:23:43.815Z,23.86
2022-09-05T18:26:53.314Z,23.77
2022-09-05T18:30:06.066Z,23.67
2022-09-05T18:33:29.073Z,23.60
2022-09-05T18:36:36.626Z,23.51
2022-09-05T18:39:43.067Z,23.40
2022-09-05T18:42:49.752Z,23.31
2022-09-05T18:45:58.915Z,23.13
2022-09-05T18:50:21.525Z,23.14
2022-09-05T18:52:44.372Z,23.03
2022-09-05T18:56:12.364Z,22.95
2022-09-05T18:59:23.974Z,22.88
2022-09-05T19:02:50.206Z,22.80
2022-09-05T19:06:34.285Z,22.72
2022-09-05T19:09:28.535Z,22.63
2022-09-05T19:12:45.035Z,22.56
2022-09-05T19:15:58.549Z,22.48
2022-09-05T19:19:24.428Z,22.39
2022-09-05T19:23:08.552Z,22.31
2022-09-05T19:25:55.542Z,22.23
2022-09-05T19:36:57.532Z,22.17
2022-09-05T19:36:57.696Z,22.10
2022-09-05T19:37:09.040Z,22.02
2022-09-05T19:43:14.256Z,21.97
2022-09-05T19:47:43.283Z,21.83
2022-09-05T19:47:43.621Z,21.89
2022-09-05T19:49:36.932Z,21.70
2022-09-05T19:52:41.560Z,21.60
2022-09-05T19:55:45.160Z,21.54
2022-09-05T19:58:48.095Z,21.51
2022-09-05T20:01:53.013Z,21.44
2022-09-05T20:04:58.246Z,21.30
2022-09-05T20:08:05.084Z,21.21
2022-09-05T20:11:09.070Z,21.17
2022-09-05T20:14:21.666Z,21.07
2022-09-05T20:17:27.220Z,21.03
2022-09-05T20:20:32.357Z,20.98
2022-09-05T20:23:40.256Z,20.94
2022-09-05T20:26:46.031Z,20.91
2022-09-05T20:29:56.060Z,20.87
2022-09-05T20:33:02.227Z,20.84
2022-09-05T20:43:14.665Z,20.81
2022-09-05T20:43:17.274Z,20.77
2022-09-05T20:43:30.426Z,20.70
2022-09-05T20:50:44.504Z,20.66
2022-09-05T20:54:18.226Z,20.58
2022-09-05T20:54:31.840Z,20.52
2022-09-05T20:56:56.524Z,20.32
2022-09-05T21:00:06.584Z,20.30
2022-09-05T21:03:09.589Z,20.35
2022-09-05T21:06:22.347Z,20.28
2022-09-05T21:09:29.613Z,20.24
2022-09-05T21:12:45.347Z,20.22
2022-09-05T21:15:53.910Z,20.19
2022-09-05T21:19:20.598Z,20.11
2022-09-05T21:22:25.874Z,20.12
2022-09-05T21:25:43.805Z,20.07
2022-09-05T21:29:04.942Z,19.96
2022-09-05T21:32:11.277Z,19.92
2022-09-05T21:35:33.895Z,19.91
2022-09-05T21:38:41.600Z,19.77
2022-09-05T21:41:45.486Z,19.82
2022-09-05T21:47:48.625Z,19.81
2022-09-05T21:48:21.716Z,19.78
2022-09-05T21:51:26.165Z,19.77
2022-09-05T21:59:22.149Z,19.72
2022-09-05T21:59:26.134Z,19.71
2022-09-05T22:01:17.346Z,19.67
2022-09-05T22:04:22.650Z,19.60
2022-09-05T22:07:32.453Z,19.56
2022-09-05T22:10:51.597Z,19.51
2022-09-05T22:13:58.603Z,19.48
2022-09-05T22:17:05.274Z,19.48
2022-09-05T22:20:09.073Z,19.47
2022-09-05T22:23:12.177Z,19.41
2022-09-05T22:26:16.429Z,19.39
2022-09-05T22:29:19.231Z,19.35
2022-09-05T22:32:33.873Z,19.30
2022-09-05T22:35:40.178Z,19.28
2022-09-05T22:38:43.455Z,19.27
2022-09-05T22:41:46.159Z,19.22
2022-09-05T22:44:49.512Z,19.15
2022-09-05T22:47:53.950Z,19.13
2022-09-05T22:50:57.038Z,19.11
2022-09-05T22:53:59.718Z,19.08
2022-09-05T22:57:02.934Z,19.05
2022-09-05T23:00:08.372Z,19.02
2022-09-05T23:03:12.866Z,19.00
2022-09-05T23:06:16.707Z,18.99
2022-09-05T23:09:19.712Z,18.94
2022-09-05T23:12:22.393Z,18.90
2022-09-05T23:15:25.637Z,18.87
2022-09-05T23:18:31.660Z,18.84
2022-09-05T23:21:35.200Z,18.81
2022-09-05T23:24:37.972Z,18.79
2022-09-05T23:27:40.689Z,18.74
2022-09-05T23:30:43.466Z,18.70
2022-09-05T23:33:47.483Z,18.67
2022-09-05T23:36:50.271Z,18.63
2022-09-05T23:39:53.511Z,18.62
2022-09-05T23:42:58.024Z,18.57
2022-09-05T23:46:01.152Z,18.57
2022-09-05T23:49:05.221Z,18.54
2022-09-05T23:52:08.007Z,18.50
2022-09-05T23:55:11.212Z,18.47
2022-09-05T23:58:14.158Z,18.47
